Time;durP1;ratioP1;P1;durP2;ratioP2;P2;SDS_P1;SDS_P2;PMS_P1;PMS_P2;Temp;Humidity;BMP_temperature;BMP_pressure;BME280_temperature;BME280_humidity;BME280_pressure;Samples;Min_cycle;Max_cycle;Signal;HPM_P1;HPM_P2
2023/06/25 00:00:06;;;;;;;7.43;6.73;;;22.30;82.10;;;;;;6276568;28;20242;-66
2023/06/25 00:03:13;;;;;;;7.00;6.07;;;22.30;81.70;;;;;;6276541;28;20263;-66
2023/06/25 00:06:16;;;;;;;7.30;6.60;;;22.30;81.50;;;;;;6267328;28;20564;-65
2023/06/25 00:09:19;;;;;;;6.63;6.00;;;22.40;80.90;;;;;;6276327;28;20242;-65
2023/06/25 00:12:23;;;;;;;6.90;6.30;;;22.30;80.80;;;;;;6276394;28;20235;-65
2023/06/25 00:15:27;;;;;;;6.90;6.03;;;22.20;80.50;;;;;;6275726;28;20231;-66
2023/06/25 00:18:33;;;;;;;7.17;6.40;;;22.00;81.00;;;;;;6275715;28;20254;-65
2023/06/25 00:21:37;;;;;;;6.20;5.70;;;22.00;81.80;;;;;;6276347;28;20235;-65
2023/06/25 00:24:40;;;;;;;6.37;5.87;;;21.90;82.70;;;;;;6276095;28;20306;-66
2023/06/25 00:27:47;;;;;;;7.53;6.80;;;21.90;82.40;;;;;;6275683;28;20576;-65
2023/06/25 00:30:50;;;;;;;6.70;6.10;;;21.90;82.00;;;;;;6275879;28;20234;-65
2023/06/25 00:33:54;;;;;;;6.37;5.87;;;21.90;82.30;;;;;;6275832;28;20705;-65
2023/06/25 00:36:58;;;;;;;6.87;6.17;;;21.60;82.40;;;;;;6275728;28;20223;-65
2023/06/25 00:40:09;;;;;;;6.60;6.00;;;21.40;83.40;;;;;;6275779;28;20342;-65
2023/06/25 00:43:14;;;;;;;7.27;6.57;;;21.40;84.30;;;;;;6275949;28;20203;-66
2023/06/25 00:46:18;;;;;;;6.70;6.10;;;21.50;84.10;;;;;;6275631;28;20199;-65
2023/06/25 00:49:22;;;;;;;6.87;6.27;;;21.40;83.80;;;;;;6275486;28;20235;-65
2023/06/25 00:52:26;;;;;;;6.90;6.20;;;21.50;84.20;;;;;;6275639;28;20231;-65
2023/06/25 00:55:29;;;;;;;8.23;6.40;;;21.50;84.20;;;;;;6275467;28;20527;-65
2023/06/25 00:58:37;;;;;;;7.27;6.57;;;21.50;84.40;;;;;;6275359;28;20651;-65
2023/06/25 01:01:45;;;;;;;6.13;5.57;;;21.50;84.60;;;;;;6275700;28;20227;-65
2023/06/25 01:04:57;;;;;;;8.30;7.50;;;21.50;84.90;;;;;;6276032;28;20234;-65
2023/06/25 01:08:03;;;;;;;7.90;7.00;;;21.50;84.40;;;;;;6270134;28;20370;-65
2023/06/25 01:11:10;;;;;;;7.03;6.40;;;21.50;84.60;;;;;;6275222;28;20365;-65
2023/06/25 01:14:14;;;;;;;7.10;6.50;;;21.40;85.00;;;;;;6274892;28;20231;-66
2023/06/25 01:17:17;;;;;;;8.03;6.37;;;21.30;85.60;;;;;;6274750;28;20713;-65
2023/06/25 01:20:22;;;;;;;7.43;6.53;;;21.40;85.40;;;;;;6274414;28;20940;-66
2023/06/25 01:23:29;;;;;;;7.90;7.17;;;21.40;84.80;;;;;;6274897;28;20328;-66
2023/06/25 01:26:34;;;;;;;7.40;6.50;;;21.40;84.90;;;;;;6274408;28;20227;-65
2023/06/25 01:29:38;;;;;;;7.67;6.90;;;21.40;85.70;;;;;;6274463;28;20402;-65
2023/06/25 01:32:41;;;;;;;7.30;6.63;;;21.40;86.00;;;;;;6274638;28;20227;-65
2023/06/25 01:35:45;;;;;;;7.63;7.00;;;21.40;86.70;;;;;;6274762;28;20239;-65
2023/06/25 01:38:49;;;;;;;8.20;7.50;;;21.40;86.70;;;;;;6274423;28;20235;-66
2023/06/25 01:41:52;;;;;;;6.67;6.17;;;21.50;86.80;;;;;;6274653;28;20242;-66
2023/06/25 01:44:55;;;;;;;8.20;7.00;;;21.50;86.80;;;;;;6274232;28;20249;-66
2023/06/25 01:47:59;;;;;;;6.60;5.87;;;21.50;86.80;;;;;;6274060;28;20238;-65
2023/06/25 01:51:02;;;;;;;6.80;6.20;;;21.50;86.80;;;;;;6274091;28;20314;-65
2023/06/25 01:54:07;;;;;;;7.43;6.73;;;21.50;86.80;;;;;;6273962;28;20545;-65
2023/06/25 01:57:10;;;;;;;6.43;5.93;;;21.50;87.60;;;;;;6274150;28;20228;-65
2023/06/25 02:00:15;;;;;;;6.57;6.07;;;21.50;86.80;;;;;;6274103;28;20225;-66
2023/06/25 02:03:20;;;;;;;6.43;5.87;;;21.50;86.90;;;;;;6274500;28;20315;-65
2023/06/25 02:06:24;;;;;;;7.00;6.37;;;21.40;87.20;;;;;;6274408;28;20339;-65
2023/06/25 02:09:28;;;;;;;6.43;5.83;;;21.40;87.90;;;;;;6274085;28;20302;-66
2023/06/25 02:12:31;;;;;;;7.43;6.80;;;21.30;88.00;;;;;;6269762;28;20652;-65
2023/06/25 02:15:37;;;;;;;7.90;5.73;;;21.20;88.80;;;;;;6274049;28;20656;-65
2023/06/25 02:18:41;;;;;;;7.87;6.47;;;21.10;89.10;;;;;;6275561;28;20253;-65
2023/06/25 02:21:44;;;;;;;6.33;5.73;;;21.10;88.80;;;;;;6279598;28;20575;-65
2023/06/25 02:24:49;;;;;;;7.67;6.80;;;20.90;89.00;;;;;;6280909;28;20247;-66
2023/06/25 02:27:52;;;;;;;7.47;6.87;;;20.70;89.40;;;;;;6278867;28;20231;-65
2023/06/25 02:30:55;;;;;;;7.20;6.60;;;20.60;90.10;;;;;;6278796;28;20219;-66
2023/06/25 02:33:58;;;;;;;6.73;5.93;;;20.50;90.40;;;;;;6278629;28;20690;-66
2023/06/25 02:37:12;;;;;;;8.73;6.40;;;20.40;90.40;;;;;;6278344;28;20648;-65
2023/06/25 02:40:17;;;;;;;7.67;6.93;;;20.20;90.30;;;;;;6278017;28;20730;-65
2023/06/25 02:43:20;;;;;;;7.60;7.00;;;20.00;90.70;;;;;;6278456;28;20245;-65
2023/06/25 02:46:26;;;;;;;7.60;6.90;;;19.70;91.40;;;;;;6277889;28;20215;-65
2023/06/25 02:49:29;;;;;;;7.43;6.73;;;19.40;91.70;;;;;;6280479;28;20234;-66
2023/06/25 02:52:33;;;;;;;8.00;7.20;;;19.10;92.20;;;;;;6277567;28;20258;-65
2023/06/25 02:55:37;;;;;;;7.10;6.50;;;18.80;92.80;;;;;;6277960;28;20246;-64
2023/06/25 02:58:41;;;;;;;6.97;6.37;;;18.60;93.40;;;;;;6278129;28;20223;-64
2023/06/25 03:01:44;;;;;;;7.17;6.47;;;18.40;93.80;;;;;;6277853;28;20215;-64
2023/06/25 03:04:47;;;;;;;7.40;6.00;;;18.30;94.40;;;;;;6277772;28;20709;-65
2023/06/25 03:07:52;;;;;;;7.80;7.00;;;18.10;94.90;;;;;;6277227;28;20308;-64
2023/06/25 03:10:56;;;;;;;7.53;6.87;;;18.10;95.30;;;;;;6276968;28;20302;-64
2023/06/25 03:14:00;;;;;;;6.83;6.13;;;17.90;95.80;;;;;;6276987;28;20235;-64
2023/06/25 03:17:03;;;;;;;7.00;6.40;;;17.80;96.40;;;;;;6276857;28;20307;-64
2023/06/25 03:20:08;;;;;;;7.67;6.93;;;17.80;96.90;;;;;;6272994;28;20465;-64
2023/06/25 03:23:11;;;;;;;6.80;6.10;;;17.60;97.40;;;;;;6277798;28;20659;-65
2023/06/25 03:26:16;;;;;;;7.07;6.43;;;17.60;97.90;;;;;;6277320;28;20989;-65
2023/06/25 03:29:19;;;;;;;7.20;6.50;;;17.60;98.10;;;;;;6257012;28;20475;-64
2023/06/25 03:32:22;;;;;;;7.70;7.00;;;17.60;98.40;;;;;;6251670;28;20485;-65
2023/06/25 03:35:25;;;;;;;7.47;6.70;;;17.60;98.60;;;;;;6252690;28;20562;-65
2023/06/25 03:38:29;;;;;;;7.93;6.73;;;17.60;98.90;;;;;;6252696;28;20235;-65
2023/06/25 03:41:33;;;;;;;7.50;6.77;;;17.60;99.10;;;;;;6252254;28;20804;-65
2023/06/25 03:44:36;;;;;;;6.40;5.80;;;17.60;99.30;;;;;;6252217;28;20475;-65
2023/06/25 03:47:41;;;;;;;7.07;6.47;;;17.50;99.60;;;;;;6252326;28;20463;-65
2023/06/25 03:50:44;;;;;;;6.87;6.30;;;17.50;99.80;;;;;;6252190;28;20463;-65
2023/06/25 03:53:48;;;;;;;7.20;6.50;;;17.40;99.90;;;;;;6252637;28;20470;-65
2023/06/25 03:56:52;;;;;;;7.90;6.23;;;17.50;99.90;;;;;;6251673;28;20494;-64
2023/06/25 03:59:55;;;;;;;8.23;6.83;;;17.50;99.90;;;;;;6251874;28;20252;-64
2023/06/25 04:02:59;;;;;;;8.47;6.70;;;17.50;99.90;;;;;;6251849;28;20625;-65
2023/06/25 04:06:02;;;;;;;7.87;7.07;;;17.50;99.90;;;;;;6251542;28;20471;-65
2023/06/25 04:09:05;;;;;;;6.40;5.80;;;17.50;99.90;;;;;;6251570;28;20489;-64
2023/06/25 04:12:11;;;;;;;7.40;6.70;;;17.50;99.90;;;;;;6251179;28;20474;-65
2023/06/25 04:15:14;;;;;;;6.97;6.37;;;17.60;99.90;;;;;;6251448;28;20471;-65
2023/06/25 04:18:17;;;;;;;8.03;7.23;;;17.70;99.90;;;;;;6251341;28;20365;-65
2023/06/25 04:21:20;;;;;;;7.90;6.60;;;17.70;99.90;;;;;;6242285;28;20481;-65
2023/06/25 04:24:23;;;;;;;7.30;5.87;;;17.70;99.90;;;;;;6251140;28;20475;-65
2023/06/25 04:27:28;;;;;;;6.87;6.10;;;17.80;99.90;;;;;;6251159;28;20240;-64
2023/06/25 04:30:31;;;;;;;7.50;6.80;;;17.80;99.90;;;;;;6251242;28;20234;-65
2023/06/25 04:33:40;;;;;;;8.30;6.40;;;17.90;99.90;;;;;;6251100;28;20310;-65
2023/06/25 04:36:43;;;;;;;7.60;6.80;;;18.00;99.90;;;;;;6250728;28;20228;-65
2023/06/25 04:39:47;;;;;;;6.80;6.20;;;18.10;99.90;;;;;;6251002;28;20554;-65
2023/06/25 04:42:51;;;;;;;9.37;6.50;;;18.30;99.90;;;;;;6250680;28;20547;-65
2023/06/25 04:45:55;;;;;;;6.37;5.80;;;18.40;99.90;;;;;;6250942;28;20224;-64
2023/06/25 04:48:59;;;;;;;7.13;6.53;;;18.40;99.90;;;;;;6250454;28;20482;-65
2023/06/25 04:52:02;;;;;;;9.70;7.30;;;18.50;99.90;;;;;;6251285;28;20572;-65
2023/06/25 04:55:06;;;;;;;7.33;6.60;;;18.60;99.90;;;;;;6253126;28;20218;-65
2023/06/25 04:58:11;;;;;;;7.40;6.80;;;18.70;99.90;;;;;;6254819;28;20287;-65
2023/06/25 05:01:14;;;;;;;6.60;6.00;;;18.90;99.90;;;;;;6253376;28;20211;-65
2023/06/25 05:04:17;;;;;;;7.20;5.80;;;19.00;99.60;;;;;;6251708;28;20208;-65
2023/06/25 05:07:20;;;;;;;6.60;6.00;;;19.10;99.40;;;;;;6250579;28;20227;-64
2023/06/25 05:10:24;;;;;;;6.27;5.70;;;19.30;99.00;;;;;;6250226;28;20948;-65
2023/06/25 05:13:31;;;;;;;6.10;5.47;;;19.50;98.70;;;;;;6249895;28;20598;-65
2023/06/25 05:16:34;;;;;;;6.77;6.07;;;19.60;98.80;;;;;;6249584;28;20244;-65
2023/06/25 05:19:37;;;;;;;7.33;6.63;;;19.70;98.70;;;;;;6250174;28;20220;-65
2023/06/25 05:22:40;;;;;;;7.03;6.43;;;19.80;98.30;;;;;;6245933;28;20634;-65
2023/06/25 05:25:44;;;;;;;7.87;7.17;;;19.90;97.90;;;;;;6250199;28;20661;-65
2023/06/25 05:28:48;;;;;;;8.30;6.40;;;20.00;97.90;;;;;;6250097;28;20232;-65
2023/06/25 05:31:53;;;;;;;7.17;6.57;;;20.20;97.80;;;;;;6250256;28;20224;-65
2023/06/25 05:34:56;;;;;;;7.20;6.50;;;20.40;97.30;;;;;;6250208;28;20220;-65
2023/06/25 05:38:00;;;;;;;6.87;6.33;;;20.50;97.00;;;;;;6249451;28;20253;-64
2023/06/25 05:41:03;;;;;;;8.80;6.40;;;20.70;96.70;;;;;;6250124;28;20580;-65
2023/06/25 05:44:07;;;;;;;8.00;7.20;;;20.80;96.20;;;;;;6249724;28;20227;-64
2023/06/25 05:47:11;;;;;;;6.30;5.70;;;21.00;95.90;;;;;;6249772;28;20244;-65
2023/06/25 05:50:14;;;;;;;6.80;6.20;;;21.00;95.50;;;;;;6249502;28;20254;-64
2023/06/25 05:53:19;;;;;;;7.27;5.83;;;21.20;95.40;;;;;;6249263;28;20274;-64
2023/06/25 05:56:22;;;;;;;6.63;6.00;;;21.40;95.10;;;;;;6249479;28;20238;-64
2023/06/25 05:59:26;;;;;;;7.00;6.40;;;21.40;94.10;;;;;;6249600;28;20228;-64
2023/06/25 06:02:33;;;;;;;6.90;6.30;;;21.40;93.70;;;;;;6249554;28;20656;-64
2023/06/25 06:05:36;;;;;;;8.70;7.37;;;21.40;93.60;;;;;;6249226;28;20243;-64
2023/06/25 06:08:41;;;;;;;8.73;7.27;;;21.60;93.50;;;;;;6249545;28;20232;-65
2023/06/25 06:11:44;;;;;;;8.40;5.90;;;21.70;93.80;;;;;;6249378;28;20322;-64
2023/06/25 06:14:49;;;;;;;7.07;6.47;;;22.00;92.80;;;;;;6249714;28;20235;-64
2023/06/25 06:17:52;;;;;;;6.60;6.10;;;22.40;92.60;;;;;;6249649;28;20311;-64
2023/06/25 06:20:55;;;;;;;7.00;6.33;;;22.70;92.10;;;;;;6249074;28;20598;-65
2023/06/25 06:23:58;;;;;;;9.57;6.33;;;23.00;91.20;;;;;;6249401;28;20680;-65
2023/06/25 06:27:02;;;;;;;6.37;5.87;;;23.30;90.70;;;;;;6250197;28;20235;-65
2023/06/25 06:30:07;;;;;;;8.53;7.03;;;24.00;89.50;;;;;;6274110;28;20242;-65
2023/06/25 06:33:10;;;;;;;6.77;6.17;;;24.50;86.80;;;;;;6274008;28;20232;-65
2023/06/25 06:36:14;;;;;;;6.97;6.47;;;25.00;83.60;;;;;;6273897;28;20224;-65
2023/06/25 06:39:17;;;;;;;7.03;6.43;;;25.70;80.40;;;;;;6273759;28;20689;-65
2023/06/25 06:42:21;;;;;;;6.30;5.80;;;26.20;77.50;;;;;;6274222;28;20227;-65
2023/06/25 06:45:25;;;;;;;6.47;5.97;;;26.60;75.10;;;;;;6273884;28;20595;-65
2023/06/25 06:48:29;;;;;;;6.70;6.10;;;27.10;72.70;;;;;;6273976;28;20242;-64
2023/06/25 06:51:32;;;;;;;6.70;6.07;;;27.70;70.70;;;;;;6274086;28;20231;-65
2023/06/25 06:54:35;;;;;;;8.20;7.40;;;28.20;67.30;;;;;;6273683;28;20235;-65
2023/06/25 06:57:38;;;;;;;6.10;5.60;;;28.60;64.10;;;;;;6273682;28;20341;-65
2023/06/25 07:00:43;;;;;;;7.43;6.73;;;29.30;62.50;;;;;;6273817;28;20229;-65
2023/06/25 07:03:46;;;;;;;6.80;6.23;;;29.60;60.80;;;;;;6273412;28;20276;-65
2023/06/25 07:06:50;;;;;;;6.67;6.17;;;30.10;59.60;;;;;;6276676;28;20231;-65
2023/06/25 07:09:54;;;;;;;7.05;6.55;;;30.60;57.60;;;;;;6278011;28;20300;-65
2023/06/25 07:12:57;;;;;;;5.90;5.40;;;31.40;55.30;;;;;;6277633;28;20227;-65
2023/06/25 07:16:05;;;;;;;7.07;6.38;;;31.70;53.40;;;;;;6277709;28;20215;-64
2023/06/25 07:19:08;;;;;;;6.20;5.70;;;32.20;50.60;;;;;;6277652;28;20237;-64
2023/06/25 07:22:11;;;;;;;5.80;5.40;;;33.00;49.00;;;;;;6277807;28;20217;-65
2023/06/25 07:25:15;;;;;;;7.10;6.60;;;33.50;47.50;;;;;;6277879;28;20210;-65
2023/06/25 07:28:18;;;;;;;6.28;5.88;;;33.90;46.40;;;;;;6280539;28;20332;-65
2023/06/25 07:31:23;;;;;;;6.72;6.22;;;33.80;45.80;;;;;;6270928;28;20214;-66
2023/06/25 07:34:26;;;;;;;8.30;6.85;;;34.20;45.10;;;;;;6277868;28;20230;-66
2023/06/25 07:37:29;;;;;;;7.38;6.78;;;34.50;43.90;;;;;;6277483;28;20223;-66
2023/06/25 07:40:32;;;;;;;5.95;5.55;;;34.80;42.40;;;;;;6277434;28;20230;-65
2023/06/25 07:43:35;;;;;;;6.68;6.18;;;34.60;42.40;;;;;;6277566;28;20301;-65
2023/06/25 07:46:40;;;;;;;6.93;6.32;;;34.10;43.50;;;;;;6277460;28;20226;-65
2023/06/25 07:49:44;;;;;;;6.97;6.47;;;33.50;44.00;;;;;;6277603;28;20223;-65
2023/06/25 07:52:47;;;;;;;8.52;6.68;;;33.20;44.00;;;;;;6277353;28;20226;-65
2023/06/25 07:55:50;;;;;;;8.70;6.60;;;32.50;43.70;;;;;;6276857;28;20695;-65
2023/06/25 07:59:05;;;;;;;7.50;6.80;;;31.40;45.00;;;;;;6276584;28;20223;-66
2023/06/25 08:02:10;;;;;;;6.85;6.25;;;31.30;46.10;;;;;;6278361;28;20227;-65
2023/06/25 08:05:13;;;;;;;6.97;6.40;;;31.30;47.00;;;;;;6276385;28;20302;-66
2023/06/25 08:08:16;;;;;;;7.97;7.28;;;31.10;46.20;;;;;;6276694;28;20233;-66
2023/06/25 08:11:19;;;;;;;6.70;6.20;;;30.80;45.70;;;;;;6278622;28;20227;-66
2023/06/25 08:14:22;;;;;;;7.22;6.63;;;30.60;46.20;;;;;;6275937;28;20223;-65
2023/06/25 08:17:27;;;;;;;9.05;6.50;;;30.70;46.10;;;;;;6275951;28;20237;-65
2023/06/25 08:20:30;;;;;;;7.57;6.88;;;30.60;47.90;;;;;;6273438;28;20313;-65
2023/06/25 08:23:34;;;;;;;7.20;6.60;;;30.40;49.70;;;;;;6276229;28;20222;-65
2023/06/25 08:26:37;;;;;;;8.18;7.47;;;30.00;48.80;;;;;;6277978;28;20254;-65
2023/06/25 08:29:41;;;;;;;7.47;6.87;;;29.70;47.40;;;;;;6253287;28;20548;-65
2023/06/25 08:32:46;;;;;;;8.20;7.50;;;29.70;47.70;;;;;;6251437;28;20228;-65
2023/06/25 08:35:49;;;;;;;8.13;7.47;;;29.60;47.80;;;;;;6246473;28;20250;-65
2023/06/25 08:38:52;;;;;;;7.80;7.13;;;29.60;48.80;;;;;;6251444;28;20659;-65
2023/06/25 08:41:55;;;;;;;8.23;7.40;;;29.60;48.80;;;;;;6250841;28;20239;-64
2023/06/25 08:44:58;;;;;;;8.65;7.85;;;29.50;49.10;;;;;;6250992;28;20573;-65
2023/06/25 08:48:06;;;;;;;9.00;7.37;;;29.60;48.90;;;;;;6250982;28;20239;-65
2023/06/25 08:51:16;;;;;;;8.37;7.67;;;29.30;48.30;;;;;;6250844;28;20742;-64
2023/06/25 08:54:20;;;;;;;8.00;7.20;;;29.20;48.60;;;;;;6250517;28;20228;-65
2023/06/25 08:57:23;;;;;;;8.37;7.70;;;29.20;48.90;;;;;;6250576;28;20338;-65
2023/06/25 09:00:26;;;;;;;8.17;7.27;;;29.00;49.00;;;;;;6250465;28;20235;-65
2023/06/25 09:03:31;;;;;;;8.07;7.47;;;28.90;49.80;;;;;;6250663;28;20235;-65
2023/06/25 09:06:39;;;;;;;8.13;7.53;;;29.00;50.30;;;;;;6250042;28;20231;-64
2023/06/25 09:10:03;;;;;;;7.83;7.23;;;29.10;50.30;;;;;;6247845;28;20223;-64
2023/06/25 09:13:07;;;;;;;9.00;8.20;;;29.30;49.70;;;;;;6250113;28;20196;-64
2023/06/25 09:16:11;;;;;;;8.63;7.93;;;29.50;49.50;;;;;;6250208;28;20207;-63
2023/06/25 09:19:20;;;;;;;7.83;7.10;;;29.60;48.60;;;;;;6249414;28;20763;-63
2023/06/25 09:22:23;;;;;;;8.67;8.00;;;29.70;48.90;;;;;;6248109;28;20608;-63
2023/06/25 09:25:29;;;;;;;8.87;8.07;;;29.80;47.80;;;;;;6249646;28;20239;-63
2023/06/25 09:28:33;;;;;;;8.00;7.40;;;29.70;47.60;;;;;;6262756;28;20237;-63
2023/06/25 09:31:36;;;;;;;8.50;7.77;;;29.70;47.80;;;;;;6274792;28;20655;-64
2023/06/25 09:34:42;;;;;;;8.40;7.70;;;29.80;47.90;;;;;;6275111;28;20307;-64
2023/06/25 09:37:46;;;;;;;7.73;6.70;;;29.80;47.40;;;;;;6274306;28;20667;-64
2023/06/25 09:40:49;;;;;;;8.80;8.03;;;29.90;47.40;;;;;;6273377;28;20298;-64
2023/06/25 09:43:55;;;;;;;8.37;7.73;;;29.60;47.20;;;;;;6274107;28;20230;-64
2023/06/25 09:47:04;;;;;;;8.30;7.60;;;29.40;48.40;;;;;;6276056;28;20218;-64
2023/06/25 09:50:13;;;;;;;8.00;7.40;;;29.40;48.60;;;;;;6274486;28;20238;-63
2023/06/25 09:53:19;;;;;;;9.33;8.53;;;29.40;48.60;;;;;;6274304;28;20276;-63
2023/06/25 09:56:23;;;;;;;9.13;8.33;;;29.40;48.50;;;;;;6274202;28;20237;-65
2023/06/25 09:59:27;;;;;;;8.60;7.80;;;29.50;48.80;;;;;;6274293;28;20268;-64
2023/06/25 10:02:31;;;;;;;9.40;8.60;;;29.70;47.40;;;;;;6274502;28;20230;-63
2023/06/25 10:05:37;;;;;;;9.70;8.90;;;29.70;47.20;;;;;;6275945;28;20369;-64
2023/06/25 10:08:41;;;;;;;9.40;8.60;;;29.10;47.70;;;;;;6275233;28;20242;-64
2023/06/25 10:11:50;;;;;;;11.60;8.63;;;28.70;49.80;;;;;;6275691;28;20773;-64
2023/06/25 10:14:54;;;;;;;8.67;7.97;;;28.90;50.60;;;;;;6276831;28;20246;-64
2023/06/25 10:18:00;;;;;;;10.50;9.60;;;29.10;50.20;;;;;;6274728;28;20230;-63
2023/06/25 10:21:04;;;;;;;10.30;9.60;;;29.50;49.40;;;;;;6273518;28;20289;-63
2023/06/25 10:24:08;;;;;;;10.80;9.90;;;29.70;48.50;;;;;;6270774;28;20264;-63
2023/06/25 10:27:28;;;;;;;9.35;8.55;;;29.90;47.80;;;;;;6273050;28;20249;-63
2023/06/25 10:30:37;;;;;;;9.77;8.97;;;29.90;46.60;;;;;;6273916;28;20304;-64
2023/06/25 10:33:40;;;;;;;10.13;9.23;;;29.80;47.40;;;;;;6273863;28;20247;-64
2023/06/25 10:36:51;;;;;;;9.30;8.60;;;29.70;48.00;;;;;;6273693;28;20284;-64
2023/06/25 10:40:02;;;;;;;10.17;9.27;;;29.70;48.00;;;;;;6275618;28;20223;-64
2023/06/25 10:43:05;;;;;;;9.13;8.43;;;29.80;49.00;;;;;;6278423;28;20234;-64
2023/06/25 10:46:08;;;;;;;10.73;9.83;;;29.70;48.70;;;;;;6278392;28;20303;-64
2023/06/25 10:49:19;;;;;;;11.63;10.73;;;29.60;48.10;;;;;;6278452;28;20229;-64
2023/06/25 10:52:23;;;;;;;9.57;8.73;;;29.40;48.30;;;;;;6278447;28;20207;-64
2023/06/25 10:55:27;;;;;;;9.77;9.00;;;29.30;48.10;;;;;;6278009;28;20223;-63
2023/06/25 10:58:30;;;;;;;10.03;9.20;;;29.30;48.50;;;;;;6278532;28;20241;-64
2023/06/25 11:01:35;;;;;;;10.13;9.33;;;29.30;49.00;;;;;;6277586;28;20227;-65
2023/06/25 11:04:41;;;;;;;10.70;9.80;;;29.30;48.40;;;;;;6275347;28;20234;-65
2023/06/25 11:07:45;;;;;;;10.53;9.47;;;29.20;49.20;;;;;;6251313;28;20543;-66
2023/06/25 11:10:50;;;;;;;9.40;8.70;;;29.20;49.30;;;;;;6262037;28;20529;-65
2023/06/25 11:13:53;;;;;;;9.87;9.07;;;29.20;48.70;;;;;;6258426;28;20227;-64
2023/06/25 11:16:57;;;;;;;11.37;10.37;;;29.30;49.50;;;;;;6276933;28;20223;-63
2023/06/25 11:20:00;;;;;;;10.67;9.67;;;29.30;49.10;;;;;;6260508;28;20302;-63
2023/06/25 11:23:04;;;;;;;11.20;10.30;;;29.30;50.40;;;;;;6276555;28;20640;-64
2023/06/25 11:26:11;;;;;;;10.23;9.43;;;29.50;48.60;;;;;;6277547;28;20230;-64
2023/06/25 11:29:14;;;;;;;10.60;9.80;;;29.60;48.90;;;;;;6257174;28;20235;-64
2023/06/25 11:32:23;;;;;;;10.90;10.00;;;29.70;48.20;;;;;;6252684;28;20237;-64
2023/06/25 11:35:26;;;;;;;12.07;11.07;;;29.80;48.50;;;;;;6251706;28;20242;-64
2023/06/25 11:38:31;;;;;;;10.82;9.93;;;29.90;48.00;;;;;;6252775;28;20255;-64
2023/06/25 11:41:34;;;;;;;10.48;9.57;;;29.80;47.40;;;;;;6252509;28;20384;-63
2023/06/25 11:44:38;;;;;;;9.30;8.60;;;29.70;48.20;;;;;;6252446;28;20776;-63
2023/06/25 11:47:45;;;;;;;11.40;10.37;;;29.70;48.30;;;;;;6248203;28;20239;-63
2023/06/25 11:50:52;;;;;;;10.35;9.55;;;29.60;49.10;;;;;;6252475;28;20251;-63
2023/06/25 11:53:59;;;;;;;10.63;9.82;;;29.50;48.90;;;;;;6253070;28;20227;-63
2023/06/25 11:57:02;;;;;;;9.55;8.65;;;29.60;49.00;;;;;;6252402;28;20223;-63
2023/06/25 12:00:07;;;;;;;10.90;10.05;;;29.60;48.60;;;;;;6251991;28;20243;-63
2023/06/25 12:03:10;;;;;;;10.70;9.80;;;29.60;48.20;;;;;;6251958;28;20228;-63
2023/06/25 12:06:13;;;;;;;10.90;10.00;;;29.50;47.80;;;;;;6251191;28;20227;-63
2023/06/25 12:09:18;;;;;;;11.43;10.52;;;29.60;48.60;;;;;;6251363;28;20238;-63
2023/06/25 12:12:21;;;;;;;10.88;10.07;;;29.70;48.20;;;;;;6251330;28;20685;-64
2023/06/25 12:15:25;;;;;;;11.00;9.90;;;29.60;48.10;;;;;;6250800;28;20685;-64
2023/06/25 12:18:28;;;;;;;10.47;9.67;;;29.60;48.50;;;;;;6251313;28;20228;-64
2023/06/25 12:21:31;;;;;;;10.10;9.30;;;29.50;48.80;;;;;;6251432;28;20702;-65
2023/06/25 12:24:37;;;;;;;10.10;9.30;;;28.90;50.40;;;;;;6251064;28;20670;-65
2023/06/25 12:27:41;;;;;;;11.00;10.03;;;28.90;50.50;;;;;;6251143;28;20314;-64
2023/06/25 12:30:44;;;;;;;10.83;9.87;;;29.00;49.70;;;;;;6251524;28;20285;-62
2023/06/25 12:33:47;;;;;;;9.87;9.07;;;29.30;49.10;;;;;;6251032;28;20232;-66
2023/06/25 12:36:50;;;;;;;10.50;9.60;;;29.10;49.50;;;;;;6250786;28;20232;-65
2023/06/25 12:40:00;;;;;;;11.37;10.47;;;29.50;49.80;;;;;;6251056;28;20572;-65
2023/06/25 12:43:03;;;;;;;11.40;10.40;;;29.60;49.60;;;;;;6251020;28;20338;-66
2023/06/25 12:46:06;;;;;;;9.60;8.70;;;29.60;49.60;;;;;;6250739;28;20234;-67
2023/06/25 12:49:09;;;;;;;10.88;9.90;;;29.70;49.80;;;;;;6250639;28;20228;-66
2023/06/25 12:52:13;;;;;;;10.05;9.23;;;30.00;49.10;;;;;;6255337;28;20206;-66
2023/06/25 12:55:17;;;;;;;10.50;9.50;;;30.40;49.20;;;;;;6260986;28;20207;-66
2023/06/25 12:58:21;;;;;;;9.80;8.95;;;30.50;49.30;;;;;;6256431;28;20224;-67
2023/06/25 13:01:24;;;;;;;10.68;9.88;;;30.40;48.40;;;;;;6252051;28;20242;-66
2023/06/25 13:04:27;;;;;;;10.90;9.98;;;30.10;49.60;;;;;;6251612;28;20285;-65
2023/06/25 13:07:30;;;;;;;11.43;10.45;;;29.90;49.40;;;;;;6249339;28;20235;-66
2023/06/25 13:10:35;;;;;;;11.33;10.23;;;29.80;49.90;;;;;;6250523;28;20295;-67
2023/06/25 13:13:39;;;;;;;10.70;9.80;;;29.40;50.00;;;;;;6249793;28;20234;-66
2023/06/25 13:16:42;;;;;;;10.83;9.93;;;28.90;50.40;;;;;;6250015;28;20223;-65
2023/06/25 13:19:45;;;;;;;13.00;11.90;;;28.50;51.50;;;;;;6249999;28;20219;-68
2023/06/25 13:22:48;;;;;;;11.53;10.53;;;28.60;52.20;;;;;;6248917;28;20220;-65
2023/06/25 13:25:54;;;;;;;10.93;9.93;;;28.50;52.50;;;;;;6249188;28;20225;-65
2023/06/25 13:28:58;;;;;;;10.70;9.80;;;28.50;52.90;;;;;;6249364;28;20676;-64
2023/06/25 13:32:02;;;;;;;11.00;10.10;;;28.50;53.10;;;;;;6249705;28;20533;-64
2023/06/25 13:35:06;;;;;;;10.93;10.13;;;28.50;53.30;;;;;;6249623;28;20241;-64
2023/06/25 13:38:09;;;;;;;11.80;10.70;;;28.60;53.00;;;;;;6250048;28;20228;-64
2023/06/25 13:41:13;;;;;;;11.40;10.47;;;28.60;53.00;;;;;;6250449;28;20246;-64
2023/06/25 13:44:17;;;;;;;11.23;10.33;;;28.80;52.80;;;;;;6250455;28;20223;-64
2023/06/25 13:47:20;;;;;;;9.93;9.07;;;28.80;52.00;;;;;;6249598;28;20239;-65
2023/06/25 13:50:27;;;;;;;10.97;10.07;;;28.70;52.20;;;;;;6249830;28;20565;-66
2023/06/25 13:53:30;;;;;;;12.37;11.27;;;28.80;52.30;;;;;;6247975;28;20285;-66
2023/06/25 13:56:34;;;;;;;10.70;9.80;;;28.80;51.90;;;;;;6239962;28;20224;-66
2023/06/25 13:59:38;;;;;;;10.13;9.33;;;28.70;52.20;;;;;;6248660;28;20224;-66
2023/06/25 14:02:44;;;;;;;11.43;10.40;;;29.00;52.40;;;;;;6249008;28;20224;-63
2023/06/25 14:05:49;;;;;;;10.53;9.63;;;29.10;51.60;;;;;;6246332;28;20225;-63
2023/06/25 14:08:52;;;;;;;11.40;10.33;;;29.10;52.00;;;;;;6249458;28;20369;-63
2023/06/25 14:11:56;;;;;;;10.90;10.00;;;29.00;51.90;;;;;;6247636;28;20224;-63
2023/06/25 14:15:00;;;;;;;10.23;9.37;;;28.90;52.60;;;;;;6251152;28;20230;-63
2023/06/25 14:18:03;;;;;;;9.47;8.67;;;28.70;52.70;;;;;;6253582;28;20233;-64
2023/06/25 14:21:06;;;;;;;11.03;10.03;;;28.60;53.30;;;;;;6250586;28;20247;-63
2023/06/25 14:24:11;;;;;;;10.40;9.57;;;28.60;53.50;;;;;;6253991;28;20357;-63
2023/06/25 14:27:16;;;;;;;11.10;10.17;;;28.60;53.70;;;;;;6253080;28;20238;-63
2023/06/25 14:30:20;;;;;;;10.10;9.30;;;28.60;53.60;;;;;;6250944;28;20230;-63
2023/06/25 14:33:23;;;;;;;10.90;10.07;;;28.80;53.60;;;;;;6253252;28;20691;-63
2023/06/25 14:36:26;;;;;;;11.83;10.83;;;29.00;52.70;;;;;;6253323;28;20544;-63
2023/06/25 14:39:29;;;;;;;11.63;10.53;;;29.10;52.30;;;;;;6252106;28;20298;-63
2023/06/25 14:42:34;;;;;;;10.93;10.03;;;29.00;52.50;;;;;;6257849;28;20230;-63
2023/06/25 14:45:37;;;;;;;11.47;10.47;;;28.90;53.30;;;;;;6258069;28;20317;-63
2023/06/25 14:48:41;;;;;;;12.07;10.73;;;29.00;53.10;;;;;;6264450;28;20235;-64
2023/06/25 14:51:44;;;;;;;11.27;10.37;;;28.90;52.40;;;;;;6263698;28;20226;-63
2023/06/25 14:54:47;;;;;;;11.00;10.00;;;28.80;52.80;;;;;;6259715;28;20555;-63
2023/06/25 14:57:52;;;;;;;10.57;9.63;;;28.80;52.10;;;;;;6260314;28;20227;-63
2023/06/25 15:00:55;;;;;;;10.10;9.27;;;28.50;52.60;;;;;;6256534;28;20227;-63
2023/06/25 15:03:58;;;;;;;12.17;10.87;;;28.60;53.00;;;;;;6265969;28;20233;-63
2023/06/25 15:07:02;;;;;;;10.30;9.40;;;28.70;53.80;;;;;;6253501;28;20645;-64
2023/06/25 15:10:06;;;;;;;14.23;12.93;;;28.60;53.20;;;;;;6228298;28;20243;-65
2023/06/25 15:13:12;;;;;;;19.33;17.70;;;28.50;53.50;;;;;;6230009;28;20216;-65
2023/06/25 15:16:15;;;;;;;22.60;20.47;;;28.30;53.90;;;;;;6253145;28;20192;-66
2023/06/25 15:19:18;;;;;;;10.50;9.60;;;28.20;54.30;;;;;;6252867;28;20214;-67
2023/06/25 15:22:21;;;;;;;10.87;9.97;;;28.30;54.50;;;;;;6253100;28;20223;-66
2023/06/25 15:25:24;;;;;;;10.77;9.93;;;28.30;53.80;;;;;;6257379;28;20221;-66
2023/06/25 15:28:29;;;;;;;11.57;10.60;;;28.40;53.40;;;;;;6258631;28;20710;-65
2023/06/25 15:31:32;;;;;;;15.50;14.20;;;28.50;53.40;;;;;;6277263;28;20227;-67
2023/06/25 15:34:36;;;;;;;12.07;10.97;;;28.60;53.20;;;;;;6256892;28;20563;-66
2023/06/25 15:37:39;;;;;;;10.97;10.07;;;28.60;53.50;;;;;;6252526;28;20357;-66
2023/06/25 15:40:45;;;;;;;13.90;11.70;;;28.50;53.80;;;;;;6230343;28;20328;-66
2023/06/25 15:43:50;;;;;;;11.03;10.13;;;28.50;53.20;;;;;;6276369;28;20230;-67
2023/06/25 15:46:53;;;;;;;10.57;9.67;;;28.60;53.20;;;;;;6276299;28;20227;-67
2023/06/25 15:49:57;;;;;;;10.23;9.43;;;28.70;53.00;;;;;;6276831;28;20539;-66
2023/06/25 15:53:01;;;;;;;10.40;9.60;;;28.70;53.30;;;;;;6276559;28;20688;-66